Time;durP1;ratioP1;P1;durP2;ratioP2;P2;SDS_P1;SDS_P2;PMS_P1;PMS_P2;Temp;Humidity;BMP_temperature;BMP_pressure;BME280_temperature;BME280_humidity;BME280_pressure;Samples;Min_cycle;Max_cycle;Signal;HPM_P1;HPM_P2
2022/04/30 00:02:23;;;;;;;7.50;5.28;;;;;;;12.56;57.16;101301.94;1825304;77;21046;-75
2022/04/30 00:04:52;;;;;;;7.62;5.17;;;;;;;12.57;57.14;101306.23;1786615;78;21549;-75
2022/04/30 00:07:20;;;;;;;7.53;4.87;;;;;;;12.57;56.89;101303.05;1829234;77;22084;-75
2022/04/30 00:09:47;;;;;;;8.10;5.40;;;;;;;12.60;56.98;101300.38;1838480;76;21007;-77
2022/04/30 00:12:16;;;;;;;8.35;5.60;;;;;;;12.62;56.68;101296.39;1838175;77;21238;-74
2022/04/30 00:14:44;;;;;;;7.33;4.95;;;;;;;12.67;56.57;101307.70;1816545;77;21076;-74
2022/04/30 00:17:12;;;;;;;7.75;5.45;;;;;;;12.66;56.59;101301.52;1821263;77;21173;-74
2022/04/30 00:19:40;;;;;;;6.80;4.90;;;;;;;12.67;56.99;101302.34;1811717;77;21012;-74
2022/04/30 00:22:08;;;;;;;9.23;5.30;;;;;;;12.66;57.36;101299.37;1814267;77;20931;-74
2022/04/30 00:24:35;;;;;;;7.28;5.22;;;;;;;12.64;57.48;101303.66;1810538;78;21208;-75
2022/04/30 00:27:03;;;;;;;7.62;5.40;;;;;;;12.64;57.50;101301.52;1818533;76;21492;-76
2022/04/30 00:29:31;;;;;;;7.97;5.65;;;;;;;12.65;57.65;101305.80;1822634;76;21083;-75
2022/04/30 00:32:03;;;;;;;8.13;5.37;;;;;;;12.65;57.78;101299.91;1820918;76;21051;-75
2022/04/30 00:34:31;;;;;;;9.00;5.37;;;;;;;12.67;57.99;101305.03;1823691;76;21020;-75
2022/04/30 00:37:02;;;;;;;7.72;5.40;;;;;;;12.68;58.19;101302.62;1819597;76;21940;-76
2022/04/30 00:39:29;;;;;;;7.95;5.30;;;;;;;12.69;58.33;101308.25;1818217;76;21026;-76
2022/04/30 00:41:57;;;;;;;8.08;5.40;;;;;;;12.65;58.40;101303.12;1820657;76;20909;-76
2022/04/30 00:44:24;;;;;;;8.95;5.53;;;;;;;12.57;58.59;101303.05;1823941;76;21074;-75
2022/04/30 00:46:51;;;;;;;8.75;5.50;;;;;;;12.49;58.85;101305.35;1825255;76;21053;-75
2022/04/30 00:49:18;;;;;;;8.35;5.35;;;;;;;12.39;58.87;101304.17;1822744;76;21220;-75
2022/04/30 00:51:45;;;;;;;8.13;5.22;;;;;;;12.34;58.65;101298.77;1823965;76;20941;-74
2022/04/30 00:54:13;;;;;;;7.90;5.40;;;;;;;12.30;58.24;101291.47;1818260;76;21021;-74
2022/04/30 00:56:52;;;;;;;9.45;6.03;;;;;;;12.27;57.80;101295.45;1819642;76;21109;-75
2022/04/30 00:59:20;;;;;;;7.62;5.55;;;;;;;12.23;57.38;101295.67;1802892;76;21109;-75
2022/04/30 01:01:48;;;;;;;7.90;5.28;;;;;;;12.19;57.29;101293.23;1799164;78;21195;-74
2022/04/30 01:04:24;;;;;;;8.18;5.22;;;;;;;12.18;57.17;101287.06;1823573;76;21528;-75
2022/04/30 01:07:08;;;;;;;8.93;6.03;;;;;;;12.19;57.06;101290.55;1826639;76;21123;-75
2022/04/30 01:09:42;;;;;;;10.43;6.00;;;;;;;12.19;56.96;101291.89;1816373;76;21028;-76
2022/04/30 01:12:10;;;;;;;8.60;6.05;;;;;;;12.19;56.76;101285.99;1820389;76;21038;-75
2022/04/30 01:14:40;;;;;;;9.70;6.40;;;;;;;12.23;56.65;101282.28;1826667;76;21022;-75
2022/04/30 01:17:09;;;;;;;9.08;5.97;;;;;;;12.25;56.62;101282.86;1825100;76;21069;-75
2022/04/30 01:19:40;;;;;;;10.28;5.60;;;;;;;12.29;56.81;101281.29;1817827;76;21066;-74
2022/04/30 01:22:27;;;;;;;10.35;6.08;;;;;;;12.32;57.14;101284.81;1833277;76;21545;-73
2022/04/30 01:25:00;;;;;;;8.10;5.40;;;;;;;12.32;57.47;101278.65;1828829;76;21529;-74
2022/04/30 01:27:28;;;;;;;9.00;5.85;;;;;;;12.33;57.79;101281.59;1833545;77;21621;-75
2022/04/30 01:29:57;;;;;;;8.05;5.33;;;;;;;12.33;58.06;101285.61;1834998;77;20933;-74
2022/04/30 01:38:15;;;;;;;10.15;6.15;;;;;;;12.18;58.99;101268.31;1812509;77;21113;-75
2022/04/30 01:40:39;;;;;;;12.65;7.60;;;;;;;12.10;59.56;101271.95;1809376;77;21300;-75
2022/04/30 01:43:07;;;;;;;11.93;8.05;;;;;;;12.03;60.22;101265.45;1815564;77;21034;-75
2022/04/30 01:45:35;;;;;;;11.68;7.75;;;;;;;11.97;60.88;101269.11;1801492;78;21518;-75
2022/04/30 01:48:04;;;;;;;14.55;8.63;;;;;;;11.92;61.46;101257.82;1837548;77;21027;-76
2022/04/30 01:50:35;;;;;;;12.13;7.92;;;;;;;11.91;61.85;101262.07;1837489;76;21121;-74
2022/04/30 01:53:02;;;;;;;12.33;7.60;;;;;;;11.94;62.06;101259.73;1839772;77;21994;-74
2022/04/30 01:55:29;;;;;;;11.33;7.22;;;;;;;11.98;62.20;101256.03;1845892;77;21113;-75
2022/04/30 01:57:59;;;;;;;10.98;6.97;;;;;;;12.02;62.35;101253.66;1825790;77;21000;-75
2022/04/30 02:00:26;;;;;;;9.78;6.87;;;;;;;12.07;62.55;101256.38;1797071;78;21070;-75
2022/04/30 02:02:54;;;;;;;9.65;6.67;;;;;;;12.06;62.78;101248.88;1821596;76;22184;-75
2022/04/30 02:05:22;;;;;;;11.33;6.67;;;;;;;12.04;63.10;101247.50;1825652;76;21293;-74
2022/04/30 02:07:55;;;;;;;10.03;6.70;;;;;;;11.98;63.32;101246.66;1827929;76;21015;-74
2022/04/30 02:10:23;;;;;;;13.20;6.95;;;;;;;11.99;63.44;101246.13;1825308;76;21049;-75
2022/04/30 02:12:52;;;;;;;10.50;6.60;;;;;;;12.02;63.48;101245.62;1827845;76;21104;-75
2022/04/30 02:15:19;;;;;;;9.48;6.72;;;;;;;12.04;63.36;101244.30;1826738;76;21062;-75
2022/04/30 02:17:48;;;;;;;9.30;6.42;;;;;;;12.06;63.29;101242.19;1833994;76;21100;-74
2022/04/30 02:20:25;;;;;;;8.43;6.33;;;;;;;12.05;63.23;101241.11;1832890;76;21010;-74
2022/04/30 02:22:54;;;;;;;10.70;6.97;;;;;;;12.06;63.27;101240.84;1850201;75;21074;-74
2022/04/30 02:25:21;;;;;;;9.73;6.20;;;;;;;12.12;63.35;101245.74;1826229;76;20987;-74
2022/04/30 02:27:52;;;;;;;9.43;6.25;;;;;;;12.13;63.04;101244.14;1828594;76;21072;-74
2022/04/30 02:30:21;;;;;;;8.80;5.83;;;;;;;12.10;62.81;101241.16;1823153;76;21312;-74
2022/04/30 02:32:54;;;;;;;7.65;5.78;;;;;;;12.13;62.79;101239.32;1831035;75;21506;-75
2022/04/30 02:35:28;;;;;;;9.30;6.72;;;;;;;12.15;62.64;101243.37;1810854;77;21133;-74
2022/04/30 02:37:58;;;;;;;11.22;7.15;;;;;;;12.14;62.58;101239.59;1812079;77;21306;-76
2022/04/30 02:40:28;;;;;;;10.15;7.33;;;;;;;12.18;62.47;101236.71;1819180;77;21058;-76
2022/04/30 02:43:08;;;;;;;10.75;7.22;;;;;;;12.18;62.48;101237.52;1821215;78;21093;-75
2022/04/30 02:45:36;;;;;;;10.75;7.22;;;;;;;12.17;62.45;101236.41;1824860;77;21502;-75
2022/04/30 02:48:06;;;;;;;9.48;7.03;;;;;;;12.17;62.48;101239.09;1827303;77;21078;-75
2022/04/30 02:50:34;;;;;;;8.38;6.20;;;;;;;12.19;62.48;101243.68;1853265;77;21027;-74
2022/04/30 02:53:02;;;;;;;10.98;6.50;;;;;;;12.21;62.62;101249.61;1854580;77;21065;-76
2022/04/30 02:55:29;;;;;;;9.30;6.58;;;;;;;12.15;62.77;101254.09;1850098;75;21099;-74
2022/04/30 03:00:46;;;;;;;9.95;6.08;;;;;;;11.96;63.09;101254.12;1846349;75;21035;-76
2022/04/30 03:03:30;;;;;;;8.95;5.65;;;;;;;11.97;63.15;101257.88;1843634;75;21062;-74
2022/04/30 03:05:58;;;;;;;9.53;6.20;;;;;;;11.98;63.17;101258.70;1812655;77;21436;-76
2022/04/30 03:08:27;;;;;;;9.55;6.22;;;;;;;11.96;63.19;101250.10;1778740;78;21106;-74
2022/04/30 03:10:56;;;;;;;10.00;6.28;;;;;;;12.00;63.12;101254.42;1798376;79;21011;-74
2022/04/30 03:13:24;;;;;;;8.15;5.45;;;;;;;12.05;63.00;101255.30;1820891;76;21024;-75
2022/04/30 03:15:54;;;;;;;9.58;6.17;;;;;;;12.10;63.00;101259.91;1821547;76;21113;-75
2022/04/30 03:23:55;;;;;;;8.15;5.30;;;;;;;12.06;63.35;101270.84;1816987;76;20997;-74
2022/04/30 03:26:26;;;;;;;8.68;5.80;;;;;;;12.00;63.28;101273.97;1823043;76;21006;-74
2022/04/30 03:28:53;;;;;;;8.03;5.55;;;;;;;11.94;63.29;101266.42;1815266;76;21455;-74
2022/04/30 03:31:20;;;;;;;8.40;5.25;;;;;;;11.94;62.92;101270.44;1823982;76;21066;-75
2022/04/30 03:33:49;;;;;;;9.40;6.20;;;;;;;11.93;62.68;101263.45;1818131;76;21636;-75
2022/04/30 03:36:18;;;;;;;7.92;5.30;;;;;;;11.93;62.26;101260.77;1815732;76;20993;-75
2022/04/30 03:38:47;;;;;;;6.80;4.97;;;;;;;11.97;62.17;101264.56;1817762;76;21163;-74
2022/04/30 03:41:15;;;;;;;7.37;4.75;;;;;;;12.01;62.13;101255.53;1826826;76;20987;-75
2022/04/30 03:43:43;;;;;;;8.38;5.10;;;;;;;12.01;61.45;101258.20;1829081;76;20994;-75
2022/04/30 03:46:10;;;;;;;7.72;5.37;;;;;;;12.01;61.25;101260.05;1833686;78;21046;-75
2022/04/30 03:48:38;;;;;;;8.40;5.17;;;;;;;12.01;60.97;101258.71;1832107;78;20936;-75
2022/04/30 03:51:05;;;;;;;9.05;5.70;;;;;;;12.02;60.67;101260.35;1822961;76;21091;-74
2022/04/30 03:53:33;;;;;;;9.90;5.87;;;;;;;12.06;60.65;101275.66;1816517;76;21549;-76
2022/04/30 03:56:00;;;;;;;8.38;5.60;;;;;;;12.08;60.66;101279.44;1822213;76;21057;-74
2022/04/30 03:58:28;;;;;;;10.40;6.20;;;;;;;12.03;61.10;101279.37;1828222;76;21235;-76
2022/04/30 04:00:55;;;;;;;7.87;5.15;;;;;;;12.03;61.23;101286.06;1825691;76;20979;-75
2022/04/30 04:03:22;;;;;;;7.60;5.83;;;;;;;12.06;61.14;101286.91;1813825;78;21620;-76
2022/04/30 04:05:49;;;;;;;8.95;5.90;;;;;;;12.09;61.36;101280.52;1797401;79;21018;-75
2022/04/30 04:08:17;;;;;;;10.15;5.65;;;;;;;12.15;61.31;101274.70;1802964;78;21022;-76
2022/04/30 04:10:45;;;;;;;9.55;6.40;;;;;;;12.19;60.68;101277.16;1825789;78;21239;-75
2022/04/30 04:18:45;;;;;;;7.83;4.70;;;;;;;12.30;59.01;101270.84;1800633;78;21486;-76
2022/04/30 04:21:12;;;;;;;7.25;4.67;;;;;;;12.35;58.64;101264.75;1798300;79;21697;-76
2022/04/30 04:26:25;;;;;;;6.12;3.50;;;;;;;12.42;57.47;101263.48;1798638;79;20984;-76
2022/04/30 04:28:53;;;;;;;4.75;2.75;;;;;;;12.47;56.97;101263.25;1800522;78;21002;-74
2022/04/30 04:31:22;;;;;;;5.40;2.70;;;;;;;12.50;56.18;101263.56;1828827;76;21044;-75
2022/04/30 04:33:50;;;;;;;3.80;2.67;;;;;;;12.55;55.39;101265.50;1825365;76;21063;-76
2022/04/30 04:36:18;;;;;;;4.55;2.55;;;;;;;12.59;55.30;101257.22;1818341;76;21152;-76
2022/04/30 04:38:45;;;;;;;4.85;2.35;;;;;;;12.63;54.91;101259.13;1818042;76;21069;-76
2022/04/30 04:41:12;;;;;;;5.00;2.98;;;;;;;12.64;54.64;101261.31;1820360;76;21053;-75
2022/04/30 04:43:39;;;;;;;4.95;2.80;;;;;;;12.66;54.65;101269.88;1827300;76;21117;-76
2022/04/30 04:46:06;;;;;;;4.72;2.67;;;;;;;12.69;54.93;101270.72;1824649;76;21026;-75
2022/04/30 04:48:33;;;;;;;4.15;2.83;;;;;;;12.71;55.02;101267.27;1820345;76;21191;-76
2022/04/30 04:51:01;;;;;;;4.92;3.00;;;;;;;12.75;54.64;101270.25;1840220;77;20978;-76
2022/04/30 04:53:28;;;;;;;5.40;2.83;;;;;;;12.80;54.21;101278.32;1809929;77;21094;-77
2022/04/30 04:55:55;;;;;;;5.83;3.52;;;;;;;12.84;53.63;101275.44;1809665;77;21429;-76
2022/04/30 04:58:22;;;;;;;8.10;4.40;;;;;;;12.88;53.77;101276.53;1821469;77;20998;-76
2022/04/30 05:00:50;;;;;;;6.30;4.08;;;;;;;12.91;54.13;101280.05;1814197;77;21157;-76
2022/04/30 05:03:17;;;;;;;7.30;4.40;;;;;;;12.91;54.47;101288.09;1821694;77;20999;-75
2022/04/30 05:05:45;;;;;;;6.72;4.10;;;;;;;12.90;54.76;101292.66;1818376;77;21006;-76
2022/04/30 05:08:12;;;;;;;6.42;4.00;;;;;;;12.89;54.88;101289.67;1813810;77;21027;-75
2022/04/30 05:10:39;;;;;;;6.47;3.60;;;;;;;12.93;55.01;101289.17;1813397;77;21843;-75
2022/04/30 05:13:08;;;;;;;6.42;3.58;;;;;;;12.97;55.00;101288.95;1815721;77;21029;-74
2022/04/30 05:15:37;;;;;;;6.08;3.90;;;;;;;12.96;55.00;101287.32;1817937;77;20937;-75
2022/04/30 05:18:07;;;;;;;6.58;4.20;;;;;;;12.91;54.93;101287.56;1817626;77;21527;-75
2022/04/30 05:20:36;;;;;;;6.95;4.00;;;;;;;12.90;55.00;101288.63;1818598;77;21050;-76
2022/04/30 05:23:03;;;;;;;5.78;3.70;;;;;;;12.93;55.17;101293.19;1817726;77;21007;-75
2022/04/30 05:25:31;;;;;;;6.22;4.15;;;;;;;12.99;55.37;101298.88;1820114;77;21105;-76
2022/04/30 05:27:58;;;;;;;7.40;4.78;;;;;;;13.03;55.61;101286.06;1813450;77;21012;-74
2022/04/30 05:30:25;;;;;;;6.03;4.45;;;;;;;13.12;55.68;101293.09;1819615;77;21030;-74
2022/04/30 05:32:52;;;;;;;6.47;4.00;;;;;;;13.20;55.84;101293.98;1814067;77;21002;-75
2022/04/30 05:35:19;;;;;;;6.40;3.97;;;;;;;13.29;56.09;101284.94;1818226;77;21003;-76
2022/04/30 05:37:46;;;;;;;7.13;4.30;;;;;;;13.37;56.38;101289.30;1815866;77;21204;-75
2022/04/30 05:40:13;;;;;;;7.47;5.43;;;;;;;13.45;56.58;101289.88;1815992;77;21705;-77
2022/04/30 05:42:41;;;;;;;8.00;5.70;;;;;;;13.54;56.64;101286.46;1824231;77;21681;-77
2022/04/30 05:45:09;;;;;;;6.90;4.87;;;;;;;13.66;56.26;101292.19;1812939;77;21531;-76
2022/04/30 05:47:41;;;;;;;8.67;5.90;;;;;;;13.72;55.83;101291.95;1812818;77;21336;-76
2022/04/30 05:50:07;;;;;;;8.97;6.17;;;;;;;13.76;55.73;101298.41;1817174;77;21260;-76
2022/04/30 05:52:34;;;;;;;10.33;6.20;;;;;;;13.82;55.10;101300.61;1825755;78;21206;-75
2022/04/30 05:55:02;;;;;;;9.53;7.10;;;;;;;13.85;54.51;101302.74;1824453;78;21128;-76
2022/04/30 05:57:31;;;;;;;11.03;7.97;;;;;;;13.91;53.84;101307.61;1844483;77;21311;-75
2022/04/30 05:59:58;;;;;;;12.70;8.10;;;;;;;13.98;53.28;101311.67;1813383;77;21711;-76
2022/04/30 06:02:25;;;;;;;10.00;7.70;;;;;;;14.04;52.92;101311.17;1811259;77;21845;-76
2022/04/30 06:04:52;;;;;;;10.87;7.67;;;;;;;14.10;52.81;101309.33;1817745;77;21284;-76
2022/04/30 06:07:21;;;;;;;13.17;8.80;;;;;;;14.18;52.94;101312.33;1837497;76;21103;-76
2022/04/30 06:09:48;;;;;;;13.30;8.50;;;;;;;14.28;52.80;101310.19;1822632;77;21644;-75
2022/04/30 06:12:14;;;;;;;12.67;8.50;;;;;;;14.37;52.62;101310.50;1827704;76;21254;-75
2022/04/30 06:14:41;;;;;;;15.93;9.77;;;;;;;14.39;52.36;101307.83;1839047;76;21243;-74
2022/04/30 06:17:08;;;;;;;23.87;11.73;;;;;;;14.42;52.25;101305.96;1836987;76;21889;-77
2022/04/30 06:19:36;;;;;;;22.93;11.00;;;;;;;14.45;50.79;101310.81;1827893;76;21373;-75
2022/04/30 06:22:04;;;;;;;29.00;11.27;;;;;;;14.43;49.45;101309.45;1827745;76;21272;-75
2022/04/30 06:24:31;;;;;;;17.23;9.33;;;;;;;14.39;49.90;101309.72;1824429;76;21337;-76
2022/04/30 06:26:58;;;;;;;21.13;10.50;;;;;;;14.47;50.09;101310.53;1828268;76;21179;-76
2022/04/30 06:29:25;;;;;;;22.90;12.37;;;;;;;14.52;49.83;101311.94;1827329;76;21677;-75
2022/04/30 06:31:52;;;;;;;23.73;11.73;;;;;;;14.56;49.71;101313.02;1826661;76;21587;-75
2022/04/30 06:34:19;;;;;;;20.13;11.93;;;;;;;14.61;49.34;101317.08;1829588;76;21175;-75
2022/04/30 06:36:47;;;;;;;22.67;12.40;;;;;;;14.65;49.24;101322.19;1840597;75;21098;-76
2022/04/30 06:39:15;;;;;;;21.33;12.33;;;;;;;14.67;48.82;101313.30;1819251;77;21311;-76
2022/04/30 06:41:43;;;;;;;20.83;12.40;;;;;;;14.69;48.79;101319.77;1844507;76;21289;-74
2022/04/30 06:44:12;;;;;;;17.97;12.20;;;;;;;14.72;48.61;101320.05;1844953;76;21347;-76
2022/04/30 06:46:41;;;;;;;21.87;13.00;;;;;;;14.78;48.18;101319.53;1826221;78;21932;-74
2022/04/30 06:49:08;;;;;;;18.73;12.20;;;;;;;14.88;48.17;101322.23;1831096;78;21183;-75
2022/04/30 06:51:36;;;;;;;18.47;11.67;;;;;;;15.03;47.84;101322.77;1826203;78;21338;-76
2022/04/30 06:59:40;;;;;;;15.13;9.03;;;;;;;15.46;46.75;101315.23;1741490;79;21218;-76
2022/04/30 07:02:13;;;;;;;13.80;8.55;;;;;;;15.67;46.20;101322.79;1767088;79;21286;-76
2022/04/30 07:04:42;;;;;;;13.13;6.93;;;;;;;15.82;45.59;101315.20;1815770;75;21227;-74
2022/04/30 07:07:09;;;;;;;13.77;7.27;;;;;;;16.01;44.92;101308.14;1825121;77;21361;-76
2022/04/30 07:09:37;;;;;;;13.93;8.00;;;;;;;16.11;44.51;101312.69;1807178;78;21432;-75
2022/04/30 07:12:09;;;;;;;15.47;8.23;;;;;;;16.18;44.27;101309.95;1821955;76;21406;-76
2022/04/30 07:14:40;;;;;;;11.10;7.15;;;;;;;16.28;44.11;101309.11;1840374;76;21571;-74
2022/04/30 07:17:12;;;;;;;12.53;6.67;;;;;;;16.48;43.56;101298.77;1833501;76;21717;-75
2022/04/30 07:19:41;;;;;;;13.73;8.27;;;;;;;16.48;43.56;101298.77;1825903;76;21415;-76
2022/04/30 07:22:08;;;;;;;12.67;7.40;;;;;;;16.56;43.44;101301.44;1819292;76;21517;-75
2022/04/30 07:24:35;;;;;;;10.90;6.07;;;;;;;16.56;43.44;101301.44;1835948;76;21496;-75
2022/04/30 07:27:04;;;;;;;12.57;6.93;;;;;;;16.59;42.74;101304.37;1829302;76;21714;-74
2022/04/30 07:29:37;;;;;;;10.03;6.57;;;;;;;16.58;42.92;101298.73;1829224;76;21510;-75
2022/04/30 07:32:07;;;;;;;10.03;6.00;;;;;;;16.58;42.92;101298.73;1830831;76;21635;-73
2022/04/30 07:34:35;;;;;;;10.07;6.50;;;;;;;16.68;42.81;101302.42;1827622;76;21651;-75
2022/04/30 07:37:10;;;;;;;12.87;7.10;;;;;;;16.74;42.81;101305.36;1824777;76;21671;-74
2022/04/30 07:39:33;;;;;;;11.77;7.03;;;;;;;16.80;42.31;101301.58;1831669;76;21671;-75
2022/04/30 07:42:00;;;;;;;11.00;6.97;;;;;;;16.92;42.80;101302.03;1835614;76;21664;-76
2022/04/30 07:44:30;;;;;;;12.43;6.90;;;;;;;17.08;42.71;101303.53;1830259;76;21715;-76
2022/04/30 07:46:58;;;;;;;10.03;5.60;;;;;;;17.27;41.45;101297.42;1844695;77;21712;-76
2022/04/30 07:49:26;;;;;;;9.27;4.70;;;;;;;17.45;41.23;101292.67;1799456;78;21684;-74
2022/04/30 07:51:57;;;;;;;8.27;4.20;;;;;;;17.64;40.01;101291.97;1820444;76;22443;-76
2022/04/30 07:54:25;;;;;;;5.90;3.73;;;;;;;17.76;39.39;101289.64;1832357;76;21707;-75
2022/04/30 07:56:54;;;;;;;6.47;3.80;;;;;;;17.84;38.23;101280.95;1832075;76;21722;-75
2022/04/30 07:59:23;;;;;;;6.10;3.13;;;;;;;17.89;38.57;101280.87;1824793;76;21705;-75
2022/04/30 08:01:51;;;;;;;6.23;2.53;;;;;;;18.05;37.82;101285.02;1835682;76;22275;-76
2022/04/30 08:04:19;;;;;;;5.33;2.50;;;;;;;18.21;36.11;101286.18;1822661;76;21721;-75
2022/04/30 08:06:47;;;;;;;4.27;2.50;;;;;;;18.32;36.07;101275.47;1827541;76;21519;-74
2022/04/30 08:09:16;;;;;;;4.53;2.40;;;;;;;18.32;36.07;101275.47;1845931;75;21116;-73
2022/04/30 08:11:43;;;;;;;4.40;2.57;;;;;;;18.36;35.44;101274.34;1815043;77;21043;-74
2022/04/30 08:14:10;;;;;;;4.60;2.33;;;;;;;18.22;35.55;101271.55;1839046;77;21030;-74
2022/04/30 08:16:39;;;;;;;5.33;2.73;;;;;;;18.09;36.01;101264.16;1838161;77;21520;-76
2022/04/30 08:19:06;;;;;;;4.23;2.33;;;;;;;17.99;36.39;101266.44;1814351;77;21108;-76
2022/04/30 08:21:33;;;;;;;4.67;2.70;;;;;;;17.99;36.39;101256.98;1816224;77;20996;-79
2022/04/30 08:24:00;;;;;;;4.30;2.73;;;;;;;18.02;35.99;101262.61;1810240;77;20967;-78
2022/04/30 08:26:27;;;;;;;4.00;2.30;;;;;;;18.01;36.22;101261.56;1817102;77;21539;-75
2022/04/30 08:28:55;;;;;;;5.07;2.50;;;;;;;17.99;36.17;101259.69;1810372;77;20991;-76
2022/04/30 08:31:22;;;;;;;3.20;2.00;;;;;;;17.98;35.96;101253.48;1825176;77;21208;-74
2022/04/30 08:33:48;;;;;;;3.80;2.03;;;;;;;17.95;35.64;101258.11;1822146;77;20993;-75
2022/04/30 08:36:18;;;;;;;4.83;2.30;;;;;;;17.86;35.70;101262.54;1818420;77;21140;-74
2022/04/30 08:38:45;;;;;;;7.13;2.20;;;;;;;17.84;36.13;101257.98;1822523;77;20935;-75
2022/04/30 08:41:13;;;;;;;7.10;2.20;;;;;;;17.88;36.43;101256.31;1807187;78;20976;-75
2022/04/30 08:43:41;;;;;;;3.63;2.30;;;;;;;17.93;36.59;101250.02;1806900;78;21546;-74
2022/04/30 08:46:07;;;;;;;3.80;2.13;;;;;;;17.91;36.29;101248.98;1818545;77;21082;-74
2022/04/30 08:48:34;;;;;;;3.60;2.37;;;;;;;17.97;36.45;101253.23;1815108;77;21054;-73
2022/04/30 08:51:02;;;;;;;4.43;2.13;;;;;;;17.99;35.98;101253.73;1815113;77;21471;-73
2022/04/30 08:53:29;;;;;;;3.30;2.20;;;;;;;18.00;35.97;101251.85;1825693;78;21551;-75
2022/04/30 08:55:58;;;;;;;4.07;2.13;;;;;;;17.95;36.15;101251.35;1855171;77;21544;-74
2022/04/30 08:58:27;;;;;;;4.63;2.27;;;;;;;17.88;36.28;101256.31;1819026;77;21077;-75
2022/04/30 09:00:55;;;;;;;3.80;2.10;;;;;;;17.80;36.52;101257.77;1841048;77;21074;-78
2022/04/30 09:03:22;;;;;;;4.90;2.33;;;;;;;17.84;36.19;101256.64;1836312;76;21521;-77
2022/04/30 09:05:51;;;;;;;3.67;2.03;;;;;;;17.86;36.73;101252.28;1836032;76;20923;-77
2022/04/30 09:08:19;;;;;;;4.30;2.20;;;;;;;17.79;36.88;101254.78;1836144;77;21490;-77
2022/04/30 09:10:48;;;;;;;4.13;2.20;;;;;;;17.79;36.56;101256.68;1840786;77;21038;-76
2022/04/30 09:13:16;;;;;;;3.60;2.33;;;;;;;17.79;35.97;101253.42;1833526;77;21082;-76
2022/04/30 09:15:45;;;;;;;4.67;2.70;;;;;;;17.76;36.51;101245.89;1832775;77;21561;-78
2022/04/30 09:18:15;;;;;;;5.10;2.80;;;;;;;17.61;36.77;101258.22;1834162;77;21023;-77
2022/04/30 09:20:49;;;;;;;3.50;2.50;;;;;;;17.47;36.75;101257.27;1843252;76;21090;-78
2022/04/30 09:23:33;;;;;;;4.30;2.87;;;;;;;17.05;37.82;101250.66;1839114;77;22209;-78
2022/04/30 09:26:05;;;;;;;4.40;2.77;;;;;;;17.05;37.82;101250.66;1834410;76;20971;-78
2022/04/30 09:28:37;;;;;;;4.40;2.90;;;;;;;16.95;38.34;101251.55;1842038;77;21504;-77
2022/04/30 09:31:08;;;;;;;4.97;3.03;;;;;;;16.98;38.58;101248.29;1821463;76;21776;-78
2022/04/30 09:33:38;;;;;;;4.27;2.60;;;;;;;17.15;38.20;101248.42;1817921;76;21277;-77
2022/04/30 09:38:53;;;;;;;4.67;2.83;;;;;;;17.28;37.41;101252.61;1814113;76;21019;-75
2022/04/30 09:41:25;;;;;;;5.10;2.83;;;;;;;17.24;37.13;101248.88;1800082;77;20999;-76
2022/04/30 09:44:04;;;;;;;5.53;2.83;;;;;;;17.24;37.13;101248.88;1798857;79;21042;-77
2022/04/30 09:46:38;;;;;;;4.97;2.53;;;;;;;17.20;37.66;101245.66;1796147;79;21236;-78
2022/04/30 09:54:40;;;;;;;6.10;2.47;;;;;;;17.32;38.11;101246.09;1822388;76;20997;-72
2022/04/30 09:57:08;;;;;;;3.23;2.10;;;;;;;17.26;36.97;101244.52;1832147;78;21009;-80
2022/04/30 09:59:38;;;;;;;3.70;2.20;;;;;;;17.26;36.97;101244.52;1831649;78;21054;-72
2022/04/30 10:02:07;;;;;;;4.23;2.30;;;;;;;17.17;37.11;101262.42;1830836;76;21663;-79
2022/04/30 10:04:36;;;;;;;6.13;3.13;;;;;;;17.07;37.45;101247.92;1831920;78;20959;-81
2022/04/30 10:07:06;;;;;;;4.22;2.55;;;;;;;16.95;37.50;101256.95;1832052;78;21770;-80
2022/04/30 10:09:51;;;;;;;4.43;2.50;;;;;;;16.86;37.79;101254.59;1831878;78;21014;-75
2022/04/30 10:12:46;;;;;;;3.70;2.13;;;;;;;16.86;37.79;101254.59;1807405;78;21738;-77
2022/04/30 10:15:31;;;;;;;5.97;2.50;;;;;;;16.79;37.33;101256.80;1799074;79;21634;-78
2022/04/30 10:18:01;;;;;;;4.87;2.47;;;;;;;16.68;37.85;101252.52;1820534;76;21657;-78
2022/04/30 10:20:34;;;;;;;3.97;2.27;;;;;;;16.66;38.38;101248.77;1795910;76;21808;-78
2022/04/30 10:23:01;;;;;;;3.33;2.30;;;;;;;16.64;38.52;101249.03;1828603;76;21679;-78
2022/04/30 10:25:46;;;;;;;4.83;2.70;;;;;;;16.60;38.24;101256.63;1842293;77;21699;-77
2022/04/30 10:28:23;;;;;;;4.40;2.47;;;;;;;16.53;38.03;101248.86;1860458;75;21724;-82
2022/04/30 10:31:11;;;;;;;5.13;2.13;;;;;;;16.48;37.88;101247.52;1830888;76;21760;-77
2022/04/30 10:33:50;;;;;;;4.93;2.10;;;;;;;16.45;37.22;101244.59;1843727;76;21679;-78
2022/04/30 10:36:18;;;;;;;4.00;2.50;;;;;;;16.47;37.52;101248.62;1825881;76;21711;-79
2022/04/30 10:38:55;;;;;;;4.40;2.40;;;;;;;16.49;37.90;101245.11;1831916;76;21726;-78
2022/04/30 10:41:22;;;;;;;4.20;2.23;;;;;;;16.50;37.91;101247.27;1841340;78;21631;-78
2022/04/30 10:44:00;;;;;;;2.83;1.90;;;;;;;16.50;37.51;101240.52;1832130;78;21678;-78
2022/04/30 10:46:37;;;;;;;3.50;2.20;;;;;;;16.50;37.64;101246.72;1829664;76;21628;-77
2022/04/30 10:49:05;;;;;;;3.90;2.50;;;;;;;16.47;37.48;101241.88;1830358;76;21751;-78
2022/04/30 10:51:40;;;;;;;4.13;2.10;;;;;;;16.47;37.01;101239.73;1836388;76;21608;-77
2022/04/30 10:54:13;;;;;;;4.37;2.17;;;;;;;16.47;37.03;101241.88;1827271;76;22888;-77
2022/04/30 10:56:40;;;;;;;4.87;2.07;;;;;;;16.50;37.12;101242.67;1805489;79;21698;-76
2022/04/30 10:59:07;;;;;;;3.80;2.20;;;;;;;16.53;37.70;101239.97;1836903;76;21762;-78
2022/04/30 11:01:34;;;;;;;4.23;2.50;;;;;;;16.50;37.82;101240.52;1836412;76;21698;-77
2022/04/30 11:04:02;;;;;;;3.80;2.43;;;;;;;16.46;37.28;101240.28;1804820;78;22200;-76
2022/04/30 11:06:31;;;;;;;4.33;2.37;;;;;;;16.43;36.91;101241.38;1799312;78;21651;-77
2022/04/30 11:09:02;;;;;;;4.27;2.30;;;;;;;16.40;36.85;101237.34;1850579;75;21654;-76
2022/04/30 11:11:29;;;;;;;4.20;2.03;;;;;;;16.38;37.15;101237.61;1853515;75;21693;-75
2022/04/30 11:14:10;;;;;;;3.63;2.10;;;;;;;16.38;37.09;101235.45;1829978;77;22336;-76
2022/04/30 11:16:44;;;;;;;4.42;2.50;;;;;;;16.42;36.36;101233.84;1827788;78;21573;-77
2022/04/30 11:19:16;;;;;;;4.03;2.17;;;;;;;16.39;36.06;101238.44;1834163;77;21054;-78
2022/04/30 11:21:53;;;;;;;3.65;1.90;;;;;;;16.30;35.81;101235.52;1849959;75;21676;-77
2022/04/30 11:24:27;;;;;;;3.70;2.10;;;;;;;16.28;35.86;101230.13;1818120;77;21470;-77
2022/04/30 11:27:05;;;;;;;5.40;2.40;;;;;;;16.30;36.11;101230.13;1834882;77;22158;-77
2022/04/30 11:29:33;;;;;;;4.73;2.50;;;;;;;16.34;35.98;101229.83;1829161;76;21709;-77
2022/04/30 11:32:00;;;;;;;4.40;2.30;;;;;;;16.39;35.38;101232.50;1814196;76;21648;-78
2022/04/30 11:34:27;;;;;;;3.43;2.30;;;;;;;16.45;35.74;101229.75;1831030;76;21610;-77
2022/04/30 11:36:58;;;;;;;3.63;2.30;;;;;;;16.51;35.54;101225.95;1836228;76;21654;-77
2022/04/30 11:39:25;;;;;;;5.17;2.47;;;;;;;16.58;35.53;101223.22;1839652;76;21610;-78
2022/04/30 11:41:54;;;;;;;5.40;3.50;;;;;;;16.65;35.41;101227.74;1835334;76;21628;-77
2022/04/30 11:44:25;;;;;;;6.43;3.77;;;;;;;16.71;38.44;101227.69;1849097;76;21618;-77
2022/04/30 11:46:53;;;;;;;6.57;3.80;;;;;;;16.64;40.34;101231.50;1848635;76;21817;-76
2022/04/30 11:49:25;;;;;;;5.33;3.23;;;;;;;16.45;40.83;101223.81;1839172;76;21653;-76
2022/04/30 11:51:55;;;;;;;5.33;3.27;;;;;;;16.38;40.94;101220.63;1821817;77;21671;-79
2022/04/30 11:54:24;;;;;;;5.77;3.47;;;;;;;16.34;41.33;101223.08;1793081;79;21675;-78
2022/04/30 11:56:53;;;;;;;5.67;3.50;;;;;;;16.24;42.17;101222.34;1826306;78;22330;-77
2022/04/30 11:59:41;;;;;;;6.43;3.80;;;;;;;16.10;42.69;101219.46;1849083;77;21718;-78
2022/04/30 12:02:10;;;;;;;6.13;3.30;;;;;;;15.98;43.04;101217.63;1818482;79;22095;-77
2022/04/30 12:04:42;;;;;;;4.77;3.23;;;;;;;15.79;43.07;101212.05;1789684;80;21631;-77
2022/04/30 12:07:11;;;;;;;5.03;3.20;;;;;;;15.79;43.07;101212.05;1789386;80;21659;-77
2022/04/30 12:09:53;;;;;;;5.20;2.85;;;;;;;15.87;43.08;101209.59;1818352;77;21437;-77